Matthews, North Carolina
Current Conditions -  °F | °C
As of 9:53 PM on Wednesday 26 Nov 2014 (Local Time) from KEQY Reporting Station
Clear Clear  
Wind Chill: 40°   Ceiling: Unl
Heat Index: 43°   Visibility: 10mi
Dew Point: 40°   Wind: 5mph
Humidity: 89%   Direction: NA
Pressure: 30.03"   Gusts: NA
Location:  35.12°N, 80.72°W
Report Text: KEQY 270253Z AUTO VRB04KT 10SM CLR 06/04 A3003 RMK AO2 SLP185 T00610044 53002
Loading
Personal Weather Stations






























Interactive Weather Map New forecast layout! Learn more

10-Day Weather Forecast

Advertisements
Track Severe Weather on mobile